Terminal Aerodrome Forecast
Issued by NWS Grand Forks, ND

Home | Current Version | Previous Version | Text Only | Print | Product List | Glossary Off
Versions: 1 2 3 4 5 6 7 8 9 10 11 12 13 14 15 16 17 18 19 20 21

000
FTUS43 KFGF 211139
TAFFAR
TAF
KFAR 211139Z 2112/2212 35011KT P6SM BKN035
     FM211400 35011KT P6SM SCT030
     FM212000 36011KT P6SM FEW150
     FM220100 03007KT P6SM FEW250
     FM220800 11006KT P6SM SCT200
     FM221100 14008KT P6SM SCT150=

USA.gov is the U.S. government's official web portal to all federal, state and local government web resources and services.